Terminal Aerodrome Forecast
Issued by NWS

Home | Current Version | Previous Version | Graphics & Text | Print | Product List | Glossary On
Versions: 1 2 3 4 5 6 7 8 9 10 11 12 13 14 15 16 17 18 19
944
FTUS43 KTOP 171443 AAA
TAFFOE
TAF AMD
KFOE 171443Z 1715/1812 02008KT P6SM BKN005 OVC040
     FM171700 03009KT P6SM VCSH BKN020
     FM180000 09005KT P6SM SCT015 BKN040
     FM180700 11006KT 6SM -SHRA VCTS OVC015CB=

USA.gov is the U.S. government's official web portal to all federal, state and local government web resources and services.